sensor_id;sensor_type;location;lat;lon;timestamp;P1;durP1;ratioP1;P2;durP2;ratioP2
32082;SDS011;18597;48.328;7.932;2023-04-24T00:00:54;1.20;;;1.03;;
32082;SDS011;18597;48.328;7.932;2023-04-24T00:03:22;1.20;;;1.20;;
32082;SDS011;18597;48.328;7.932;2023-04-24T00:05:49;0.70;;;0.70;;
32082;SDS011;18597;48.328;7.932;2023-04-24T00:08:16;1.50;;;0.80;;
32082;SDS011;18597;48.328;7.932;2023-04-24T00:10:42;0.80;;;0.80;;
32082;SDS011;18597;48.328;7.932;2023-04-24T00:13:08;1.00;;;1.00;;
32082;SDS011;18597;48.328;7.932;2023-04-24T00:15:34;2.90;;;0.97;;
32082;SDS011;18597;48.328;7.932;2023-04-24T00:18:00;1.90;;;0.87;;
32082;SDS011;18597;48.328;7.932;2023-04-24T00:20:26;1.13;;;1.13;;
32082;SDS011;18597;48.328;7.932;2023-04-24T00:22:57;1.37;;;1.13;;
32082;SDS011;18597;48.328;7.932;2023-04-24T00:25:23;0.93;;;0.77;;
32082;SDS011;18597;48.328;7.932;2023-04-24T00:27:49;2.40;;;1.40;;
32082;SDS011;18597;48.328;7.932;2023-04-24T00:30:15;1.33;;;0.83;;
32082;SDS011;18597;48.328;7.932;2023-04-24T00:32:41;5.73;;;1.10;;
32082;SDS011;18597;48.328;7.932;2023-04-24T00:35:07;1.57;;;1.27;;
32082;SDS011;18597;48.328;7.932;2023-04-24T00:37:33;1.00;;;1.00;;
32082;SDS011;18597;48.328;7.932;2023-04-24T00:39:58;1.90;;;0.80;;
32082;SDS011;18597;48.328;7.932;2023-04-24T00:42:24;2.83;;;1.13;;
32082;SDS011;18597;48.328;7.932;2023-04-24T00:44:50;0.90;;;0.90;;
32082;SDS011;18597;48.328;7.932;2023-04-24T00:47:16;0.93;;;0.93;;
32082;SDS011;18597;48.328;7.932;2023-04-24T00:49:44;5.63;;;1.07;;
32082;SDS011;18597;48.328;7.932;2023-04-24T00:52:10;4.83;;;0.80;;
32082;SDS011;18597;48.328;7.932;2023-04-24T00:54:37;2.97;;;1.00;;
32082;SDS011;18597;48.328;7.932;2023-04-24T00:57:03;3.30;;;1.10;;
32082;SDS011;18597;48.328;7.932;2023-04-24T00:59:30;0.90;;;0.80;;
32082;SDS011;18597;48.328;7.932;2023-04-24T01:01:56;0.90;;;0.90;;
32082;SDS011;18597;48.328;7.932;2023-04-24T01:04:23;0.63;;;0.63;;
32082;SDS011;18597;48.328;7.932;2023-04-24T01:06:49;0.67;;;0.67;;
32082;SDS011;18597;48.328;7.932;2023-04-24T01:09:16;1.43;;;0.80;;
32082;SDS011;18597;48.328;7.932;2023-04-24T01:11:44;0.87;;;0.87;;
32082;SDS011;18597;48.328;7.932;2023-04-24T01:14:09;6.13;;;0.60;;
32082;SDS011;18597;48.328;7.932;2023-04-24T01:16:36;1.37;;;0.73;;
32082;SDS011;18597;48.328;7.932;2023-04-24T01:19:03;0.63;;;0.63;;
32082;SDS011;18597;48.328;7.932;2023-04-24T01:21:31;1.30;;;1.10;;
32082;SDS011;18597;48.328;7.932;2023-04-24T01:24:02;1.00;;;0.90;;
32082;SDS011;18597;48.328;7.932;2023-04-24T01:26:29;1.23;;;1.00;;
32082;SDS011;18597;48.328;7.932;2023-04-24T01:28:56;1.60;;;0.57;;
32082;SDS011;18597;48.328;7.932;2023-04-24T01:31:22;1.80;;;0.73;;
32082;SDS011;18597;48.328;7.932;2023-04-24T01:33:49;2.00;;;0.97;;
32082;SDS011;18597;48.328;7.932;2023-04-24T01:36:16;0.73;;;0.73;;
32082;SDS011;18597;48.328;7.932;2023-04-24T01:38:43;0.87;;;0.80;;
32082;SDS011;18597;48.328;7.932;2023-04-24T01:41:09;0.70;;;0.70;;
32082;SDS011;18597;48.328;7.932;2023-04-24T01:43:35;0.87;;;0.80;;
32082;SDS011;18597;48.328;7.932;2023-04-24T01:46:01;1.00;;;1.00;;
32082;SDS011;18597;48.328;7.932;2023-04-24T01:48:27;1.17;;;0.90;;
32082;SDS011;18597;48.328;7.932;2023-04-24T01:50:55;2.67;;;0.60;;
32082;SDS011;18597;48.328;7.932;2023-04-24T01:53:22;1.80;;;0.77;;
32082;SDS011;18597;48.328;7.932;2023-04-24T01:55:47;1.70;;;0.87;;
32082;SDS011;18597;48.328;7.932;2023-04-24T01:58:13;0.90;;;0.90;;
32082;SDS011;18597;48.328;7.932;2023-04-24T02:00:39;2.60;;;0.53;;
32082;SDS011;18597;48.328;7.932;2023-04-24T02:03:06;0.90;;;0.90;;
32082;SDS011;18597;48.328;7.932;2023-04-24T02:05:32;0.87;;;0.50;;
32082;SDS011;18597;48.328;7.932;2023-04-24T02:07:58;1.00;;;0.63;;
32082;SDS011;18597;48.328;7.932;2023-04-24T02:10:23;1.17;;;0.90;;
32082;SDS011;18597;48.328;7.932;2023-04-24T02:12:50;2.67;;;1.17;;
32082;SDS011;18597;48.328;7.932;2023-04-24T02:15:16;3.73;;;1.00;;
32082;SDS011;18597;48.328;7.932;2023-04-24T02:17:42;1.03;;;0.90;;
32082;SDS011;18597;48.328;7.932;2023-04-24T02:20:08;1.40;;;1.13;;
32082;SDS011;18597;48.328;7.932;2023-04-24T02:22:34;0.97;;;0.97;;
32082;SDS011;18597;48.328;7.932;2023-04-24T02:25:00;1.93;;;0.60;;
32082;SDS011;18597;48.328;7.932;2023-04-24T02:27:26;2.40;;;1.00;;
32082;SDS011;18597;48.328;7.932;2023-04-24T02:29:52;1.00;;;1.00;;
32082;SDS011;18597;48.328;7.932;2023-04-24T02:32:18;5.57;;;1.23;;
32082;SDS011;18597;48.328;7.932;2023-04-24T02:34:44;2.00;;;0.80;;
32082;SDS011;18597;48.328;7.932;2023-04-24T02:37:10;1.40;;;0.97;;
32082;SDS011;18597;48.328;7.932;2023-04-24T02:39:35;1.90;;;0.80;;
32082;SDS011;18597;48.328;7.932;2023-04-24T02:42:01;6.73;;;1.20;;
32082;SDS011;18597;48.328;7.932;2023-04-24T02:44:27;6.87;;;1.27;;
32082;SDS011;18597;48.328;7.932;2023-04-24T02:46:53;1.30;;;1.27;;
32082;SDS011;18597;48.328;7.932;2023-04-24T02:49:19;0.80;;;0.70;;
32082;SDS011;18597;48.328;7.932;2023-04-24T02:51:45;0.80;;;0.70;;
32082;SDS011;18597;48.328;7.932;2023-04-24T02:54:11;4.60;;;0.90;;
32082;SDS011;18597;48.328;7.932;2023-04-24T02:56:36;0.50;;;0.50;;
32082;SDS011;18597;48.328;7.932;2023-04-24T02:59:02;0.97;;;0.97;;
32082;SDS011;18597;48.328;7.932;2023-04-24T03:01:28;1.10;;;0.70;;
32082;SDS011;18597;48.328;7.932;2023-04-24T03:03:54;0.93;;;0.93;;
32082;SDS011;18597;48.328;7.932;2023-04-24T03:06:20;2.60;;;1.77;;
32082;SDS011;18597;48.328;7.932;2023-04-24T03:08:46;1.13;;;1.13;;
32082;SDS011;18597;48.328;7.932;2023-04-24T03:11:12;2.03;;;1.53;;
32082;SDS011;18597;48.328;7.932;2023-04-24T03:13:38;6.97;;;5.83;;
32082;SDS011;18597;48.328;7.932;2023-04-24T03:16:03;1.30;;;1.30;;
32082;SDS011;18597;48.328;7.932;2023-04-24T03:18:30;5.13;;;1.87;;
32082;SDS011;18597;48.328;7.932;2023-04-24T03:20:56;2.63;;;2.30;;
32082;SDS011;18597;48.328;7.932;2023-04-24T03:23:22;1.97;;;1.73;;
32082;SDS011;18597;48.328;7.932;2023-04-24T03:25:48;1.70;;;1.33;;
32082;SDS011;18597;48.328;7.932;2023-04-24T03:28:13;1.80;;;1.70;;
32082;SDS011;18597;48.328;7.932;2023-04-24T03:30:39;1.93;;;1.30;;
32082;SDS011;18597;48.328;7.932;2023-04-24T03:33:05;2.40;;;1.97;;
32082;SDS011;18597;48.328;7.932;2023-04-24T03:35:31;1.53;;;1.43;;
32082;SDS011;18597;48.328;7.932;2023-04-24T03:37:57;1.57;;;1.47;;
32082;SDS011;18597;48.328;7.932;2023-04-24T03:40:23;2.53;;;1.43;;
32082;SDS011;18597;48.328;7.932;2023-04-24T03:42:48;1.83;;;1.80;;
32082;SDS011;18597;48.328;7.932;2023-04-24T03:45:14;1.37;;;1.37;;
32082;SDS011;18597;48.328;7.932;2023-04-24T03:47:40;1.50;;;1.40;;
32082;SDS011;18597;48.328;7.932;2023-04-24T03:50:06;1.63;;;1.60;;
32082;SDS011;18597;48.328;7.932;2023-04-24T03:52:32;1.13;;;1.13;;
32082;SDS011;18597;48.328;7.932;2023-04-24T03:54:58;1.97;;;1.87;;
32082;SDS011;18597;48.328;7.932;2023-04-24T03:57:24;2.07;;;1.97;;
32082;SDS011;18597;48.328;7.932;2023-04-24T03:59:50;2.37;;;1.60;;
32082;SDS011;18597;48.328;7.932;2023-04-24T04:02:16;2.55;;;2.45;;
32082;SDS011;18597;48.328;7.932;2023-04-24T04:04:42;1.70;;;1.60;;
32082;SDS011;18597;48.328;7.932;2023-04-24T04:07:08;1.90;;;1.80;;
32082;SDS011;18597;48.328;7.932;2023-04-24T04:09:33;1.93;;;1.87;;
32082;SDS011;18597;48.328;7.932;2023-04-24T04:11:59;2.37;;;2.17;;
32082;SDS011;18597;48.328;7.932;2023-04-24T04:14:26;2.60;;;2.13;;
32082;SDS011;18597;48.328;7.932;2023-04-24T04:16:52;1.60;;;1.60;;
32082;SDS011;18597;48.328;7.932;2023-04-24T04:19:18;1.80;;;1.70;;
32082;SDS011;18597;48.328;7.932;2023-04-24T04:21:44;1.87;;;1.77;;
32082;SDS011;18597;48.328;7.932;2023-04-24T04:24:10;2.50;;;2.30;;
32082;SDS011;18597;48.328;7.932;2023-04-24T04:26:37;2.60;;;1.80;;
32082;SDS011;18597;48.328;7.932;2023-04-24T04:29:04;4.53;;;1.97;;
32082;SDS011;18597;48.328;7.932;2023-04-24T04:31:29;5.30;;;2.30;;
32082;SDS011;18597;48.328;7.932;2023-04-24T04:33:55;2.47;;;2.27;;
32082;SDS011;18597;48.328;7.932;2023-04-24T04:36:21;2.80;;;2.70;;
32082;SDS011;18597;48.328;7.932;2023-04-24T04:38:48;7.00;;;2.07;;
32082;SDS011;18597;48.328;7.932;2023-04-24T04:41:14;2.83;;;2.30;;
32082;SDS011;18597;48.328;7.932;2023-04-24T04:43:41;6.63;;;2.90;;
32082;SDS011;18597;48.328;7.932;2023-04-24T04:46:07;3.40;;;3.10;;
32082;SDS011;18597;48.328;7.932;2023-04-24T04:48:35;3.70;;;2.87;;
32082;SDS011;18597;48.328;7.932;2023-04-24T04:51:01;3.57;;;3.33;;
32082;SDS011;18597;48.328;7.932;2023-04-24T04:53:27;3.33;;;2.43;;
32082;SDS011;18597;48.328;7.932;2023-04-24T04:55:53;2.93;;;2.83;;
32082;SDS011;18597;48.328;7.932;2023-04-24T04:58:19;6.13;;;3.20;;
32082;SDS011;18597;48.328;7.932;2023-04-24T05:00:45;3.20;;;3.10;;
32082;SDS011;18597;48.328;7.932;2023-04-24T05:03:11;3.00;;;2.90;;
32082;SDS011;18597;48.328;7.932;2023-04-24T05:05:37;2.70;;;2.50;;
32082;SDS011;18597;48.328;7.932;2023-04-24T05:08:05;3.73;;;2.80;;
32082;SDS011;18597;48.328;7.932;2023-04-24T05:10:33;3.13;;;2.47;;
32082;SDS011;18597;48.328;7.932;2023-04-24T05:12:59;19.47;;;2.77;;
32082;SDS011;18597;48.328;7.932;2023-04-24T05:15:26;2.80;;;2.60;;
32082;SDS011;18597;48.328;7.932;2023-04-24T05:17:51;2.97;;;2.30;;
32082;SDS011;18597;48.328;7.932;2023-04-24T05:20:17;2.53;;;2.20;;
32082;SDS011;18597;48.328;7.932;2023-04-24T05:22:43;3.73;;;2.57;;
32082;SDS011;18597;48.328;7.932;2023-04-24T05:25:09;7.40;;;2.80;;
32082;SDS011;18597;48.328;7.932;2023-04-24T05:27:34;2.53;;;2.43;;
32082;SDS011;18597;48.328;7.932;2023-04-24T05:30:00;2.63;;;2.43;;
32082;SDS011;18597;48.328;7.932;2023-04-24T05:32:26;1.90;;;1.90;;
32082;SDS011;18597;48.328;7.932;2023-04-24T05:34:52;3.20;;;2.90;;
32082;SDS011;18597;48.328;7.932;2023-04-24T05:37:18;3.73;;;3.57;;
32082;SDS011;18597;48.328;7.932;2023-04-24T05:39:44;2.67;;;2.47;;
32082;SDS011;18597;48.328;7.932;2023-04-24T05:42:10;5.20;;;3.10;;
32082;SDS011;18597;48.328;7.932;2023-04-24T05:44:35;3.80;;;3.70;;
32082;SDS011;18597;48.328;7.932;2023-04-24T05:47:01;8.47;;;7.83;;
32082;SDS011;18597;48.328;7.932;2023-04-24T05:49:28;13.53;;;10.80;;
32082;SDS011;18597;48.328;7.932;2023-04-24T05:51:53;14.37;;;8.63;;
32082;SDS011;18597;48.328;7.932;2023-04-24T05:54:19;8.73;;;5.97;;
32082;SDS011;18597;48.328;7.932;2023-04-24T05:56:45;5.40;;;4.90;;
32082;SDS011;18597;48.328;7.932;2023-04-24T05:59:11;15.17;;;5.63;;
32082;SDS011;18597;48.328;7.932;2023-04-24T06:01:37;6.30;;;5.70;;
32082;SDS011;18597;48.328;7.932;2023-04-24T06:04:03;6.27;;;5.40;;
32082;SDS011;18597;48.328;7.932;2023-04-24T06:06:29;10.87;;;5.40;;
32082;SDS011;18597;48.328;7.932;2023-04-24T06:08:56;7.80;;;4.87;;
32082;SDS011;18597;48.328;7.932;2023-04-24T06:11:23;4.60;;;4.10;;
32082;SDS011;18597;48.328;7.932;2023-04-24T06:13:49;16.10;;;10.67;;
32082;SDS011;18597;48.328;7.932;2023-04-24T06:16:16;18.23;;;10.03;;
32082;SDS011;18597;48.328;7.932;2023-04-24T06:18:42;8.77;;;5.23;;
32082;SDS011;18597;48.328;7.932;2023-04-24T06:21:08;5.30;;;5.00;;
32082;SDS011;18597;48.328;7.932;2023-04-24T06:23:34;5.63;;;4.50;;
32082;SDS011;18597;48.328;7.932;2023-04-24T06:26:00;4.27;;;4.07;;
32082;SDS011;18597;48.328;7.932;2023-04-24T06:28:25;4.33;;;4.03;;
32082;SDS011;18597;48.328;7.932;2023-04-24T06:30:51;9.47;;;7.70;;
32082;SDS011;18597;48.328;7.932;2023-04-24T06:33:17;5.10;;;4.70;;
32082;SDS011;18597;48.328;7.932;2023-04-24T06:35:43;6.33;;;4.97;;
32082;SDS011;18597;48.328;7.932;2023-04-24T06:38:09;21.37;;;11.40;;
32082;SDS011;18597;48.328;7.932;2023-04-24T06:40:34;10.67;;;6.27;;
32082;SDS011;18597;48.328;7.932;2023-04-24T06:43:00;3.33;;;2.53;;
32082;SDS011;18597;48.328;7.932;2023-04-24T06:45:28;3.90;;;2.10;;
32082;SDS011;18597;48.328;7.932;2023-04-24T06:47:54;1.77;;;1.67;;
32082;SDS011;18597;48.328;7.932;2023-04-24T06:50:21;6.43;;;4.17;;
32082;SDS011;18597;48.328;7.932;2023-04-24T06:52:47;2.73;;;2.27;;
32082;SDS011;18597;48.328;7.932;2023-04-24T06:55:13;2.90;;;2.70;;
32082;SDS011;18597;48.328;7.932;2023-04-24T06:57:41;4.10;;;3.90;;
32082;SDS011;18597;48.328;7.932;2023-04-24T07:00:07;2.13;;;2.13;;
32082;SDS011;18597;48.328;7.932;2023-04-24T07:02:34;1.73;;;1.73;;
32082;SDS011;18597;48.328;7.932;2023-04-24T07:05:00;1.87;;;1.80;;
32082;SDS011;18597;48.328;7.932;2023-04-24T07:07:26;1.00;;;1.00;;
32082;SDS011;18597;48.328;7.932;2023-04-24T07:09:52;1.60;;;1.50;;
32082;SDS011;18597;48.328;7.932;2023-04-24T07:12:19;2.50;;;2.40;;
32082;SDS011;18597;48.328;7.932;2023-04-24T07:14:46;1.23;;;1.20;;
32082;SDS011;18597;48.328;7.932;2023-04-24T07:17:13;4.73;;;1.70;;
32082;SDS011;18597;48.328;7.932;2023-04-24T07:19:39;1.60;;;1.60;;
32082;SDS011;18597;48.328;7.932;2023-04-24T07:22:05;2.60;;;2.07;;
32082;SDS011;18597;48.328;7.932;2023-04-24T07:24:31;1.77;;;1.60;;
32082;SDS011;18597;48.328;7.932;2023-04-24T07:26:57;1.40;;;1.27;;
32082;SDS011;18597;48.328;7.932;2023-04-24T07:29:26;1.07;;;1.07;;
32082;SDS011;18597;48.328;7.932;2023-04-24T07:31:52;1.30;;;1.30;;
32082;SDS011;18597;48.328;7.932;2023-04-24T07:34:19;1.10;;;1.10;;
32082;SDS011;18597;48.328;7.932;2023-04-24T07:36:45;1.20;;;1.20;;
32082;SDS011;18597;48.328;7.932;2023-04-24T07:39:11;1.77;;;1.67;;
32082;SDS011;18597;48.328;7.932;2023-04-24T07:41:37;1.93;;;1.77;;
32082;SDS011;18597;48.328;7.932;2023-04-24T07:44:03;2.47;;;2.27;;
32082;SDS011;18597;48.328;7.932;2023-04-24T07:46:29;1.53;;;1.50;;
32082;SDS011;18597;48.328;7.932;2023-04-24T07:48:55;1.60;;;1.50;;
32082;SDS011;18597;48.328;7.932;2023-04-24T07:51:21;1.83;;;1.50;;
32082;SDS011;18597;48.328;7.932;2023-04-24T07:53:47;3.70;;;2.40;;
32082;SDS011;18597;48.328;7.932;2023-04-24T07:56:13;7.13;;;2.03;;
32082;SDS011;18597;48.328;7.932;2023-04-24T07:58:39;2.30;;;2.03;;
32082;SDS011;18597;48.328;7.932;2023-04-24T08:01:05;2.37;;;1.80;;
32082;SDS011;18597;48.328;7.932;2023-04-24T08:03:30;6.47;;;2.10;;
32082;SDS011;18597;48.328;7.932;2023-04-24T08:05:56;2.57;;;2.13;;
32082;SDS011;18597;48.328;7.932;2023-04-24T08:08:22;4.40;;;2.43;;
32082;SDS011;18597;48.328;7.932;2023-04-24T08:10:48;2.00;;;1.90;;
32082;SDS011;18597;48.328;7.932;2023-04-24T08:13:15;2.90;;;2.80;;
32082;SDS011;18597;48.328;7.932;2023-04-24T08:15:41;2.30;;;2.20;;
32082;SDS011;18597;48.328;7.932;2023-04-24T08:18:06;2.23;;;2.13;;
32082;SDS011;18597;48.328;7.932;2023-04-24T08:20:32;4.27;;;2.13;;
32082;SDS011;18597;48.328;7.932;2023-04-24T08:22:58;2.00;;;1.83;;
32082;SDS011;18597;48.328;7.932;2023-04-24T08:25:24;1.70;;;1.60;;
32082;SDS011;18597;48.328;7.932;2023-04-24T08:27:50;2.73;;;2.53;;
32082;SDS011;18597;48.328;7.932;2023-04-24T08:30:16;1.77;;;1.67;;
32082;SDS011;18597;48.328;7.932;2023-04-24T08:32:43;2.00;;;1.47;;
32082;SDS011;18597;48.328;7.932;2023-04-24T08:35:09;1.80;;;1.70;;
32082;SDS011;18597;48.328;7.932;2023-04-24T08:37:35;1.53;;;1.43;;
32082;SDS011;18597;48.328;7.932;2023-04-24T08:40:03;1.47;;;1.40;;
32082;SDS011;18597;48.328;7.932;2023-04-24T08:42:39;1.57;;;1.57;;
32082;SDS011;18597;48.328;7.932;2023-04-24T08:45:07;1.90;;;1.50;;
32082;SDS011;18597;48.328;7.932;2023-04-24T08:47:35;1.50;;;1.50;;
32082;SDS011;18597;48.328;7.932;2023-04-24T08:50:02;4.50;;;2.10;;
32082;SDS011;18597;48.328;7.932;2023-04-24T08:52:31;1.67;;;1.30;;
32082;SDS011;18597;48.328;7.932;2023-04-24T08:54:59;1.70;;;1.60;;
32082;SDS011;18597;48.328;7.932;2023-04-24T08:57:26;1.23;;;1.13;;
32082;SDS011;18597;48.328;7.932;2023-04-24T08:59:52;1.07;;;0.97;;
32082;SDS011;18597;48.328;7.932;2023-04-24T09:02:19;4.10;;;3.80;;
32082;SDS011;18597;48.328;7.932;2023-04-24T09:04:46;1.03;;;1.00;;
32082;SDS011;18597;48.328;7.932;2023-04-24T09:07:14;1.93;;;1.03;;
32082;SDS011;18597;48.328;7.932;2023-04-24T09:09:43;0.93;;;0.90;;
32082;SDS011;18597;48.328;7.932;2023-04-24T09:12:09;1.57;;;1.57;;
32082;SDS011;18597;48.328;7.932;2023-04-24T09:14:36;0.90;;;0.90;;
32082;SDS011;18597;48.328;7.932;2023-04-24T09:17:07;3.37;;;1.00;;
32082;SDS011;18597;48.328;7.932;2023-04-24T09:19:33;1.53;;;1.53;;
32082;SDS011;18597;48.328;7.932;2023-04-24T09:21:59;1.23;;;1.23;;
32082;SDS011;18597;48.328;7.932;2023-04-24T09:24:29;1.37;;;1.30;;
32082;SDS011;18597;48.328;7.932;2023-04-24T09:26:56;1.40;;;1.40;;
32082;SDS011;18597;48.328;7.932;2023-04-24T09:29:24;1.10;;;1.10;;
32082;SDS011;18597;48.328;7.932;2023-04-24T09:31:49;1.40;;;1.30;;
32082;SDS011;18597;48.328;7.932;2023-04-24T09:34:20;3.50;;;1.17;;
32082;SDS011;18597;48.328;7.932;2023-04-24T09:36:48;2.40;;;0.70;;
32082;SDS011;18597;48.328;7.932;2023-04-24T09:39:15;0.80;;;0.80;;
32082;SDS011;18597;48.328;7.932;2023-04-24T09:41:49;2.50;;;1.80;;
32082;SDS011;18597;48.328;7.932;2023-04-24T09:44:18;1.33;;;1.13;;
32082;SDS011;18597;48.328;7.932;2023-04-24T09:46:49;1.90;;;0.70;;
32082;SDS011;18597;48.328;7.932;2023-04-24T09:49:26;1.17;;;1.17;;
32082;SDS011;18597;48.328;7.932;2023-04-24T09:52:03;1.23;;;1.10;;
32082;SDS011;18597;48.328;7.932;2023-04-24T09:54:34;3.90;;;3.70;;
32082;SDS011;18597;48.328;7.932;2023-04-24T09:57:02;0.80;;;0.80;;
32082;SDS011;18597;48.328;7.932;2023-04-24T09:59:29;2.83;;;1.40;;
32082;SDS011;18597;48.328;7.932;2023-04-24T10:01:55;2.10;;;1.00;;
32082;SDS011;18597;48.328;7.932;2023-04-24T10:04:24;2.70;;;1.67;;
32082;SDS011;18597;48.328;7.932;2023-04-24T10:06:52;1.53;;;0.90;;
32082;SDS011;18597;48.328;7.932;2023-04-24T10:09:22;2.00;;;1.23;;
32082;SDS011;18597;48.328;7.932;2023-04-24T10:11:51;4.67;;;0.97;;
32082;SDS011;18597;48.328;7.932;2023-04-24T10:14:20;1.00;;;1.00;;
32082;SDS011;18597;48.328;7.932;2023-04-24T10:16:49;2.93;;;1.17;;
32082;SDS011;18597;48.328;7.932;2023-04-24T10:19:17;5.90;;;1.10;;
32082;SDS011;18597;48.328;7.932;2023-04-24T10:21:43;4.60;;;0.67;;
32082;SDS011;18597;48.328;7.932;2023-04-24T10:24:13;1.47;;;1.00;;
32082;SDS011;18597;48.328;7.932;2023-04-24T10:26:43;2.33;;;1.20;;
32082;SDS011;18597;48.328;7.932;2023-04-24T10:29:11;0.50;;;0.50;;
32082;SDS011;18597;48.328;7.932;2023-04-24T10:31:40;2.00;;;1.77;;
32082;SDS011;18597;48.328;7.932;2023-04-24T10:34:06;0.80;;;0.80;;
32082;SDS011;18597;48.328;7.932;2023-04-24T10:36:34;1.07;;;1.00;;
32082;SDS011;18597;48.328;7.932;2023-04-24T10:39:06;1.50;;;1.50;;
32082;SDS011;18597;48.328;7.932;2023-04-24T10:41:37;3.93;;;2.10;;
32082;SDS011;18597;48.328;7.932;2023-04-24T10:44:04;4.00;;;0.90;;
32082;SDS011;18597;48.328;7.932;2023-04-24T10:46:33;1.53;;;1.43;;
32082;SDS011;18597;48.328;7.932;2023-04-24T10:48:59;1.37;;;1.27;;
32082;SDS011;18597;48.328;7.932;2023-04-24T10:51:49;1.70;;;1.00;;
32082;SDS011;18597;48.328;7.932;2023-04-24T10:57:39;2.00;;;1.43;;
32082;SDS011;18597;48.328;7.932;2023-04-24T11:00:26;2.03;;;1.00;;
32082;SDS011;18597;48.328;7.932;2023-04-24T11:02:46;2.23;;;1.80;;
32082;SDS011;18597;48.328;7.932;2023-04-24T11:05:15;5.73;;;1.53;;
32082;SDS011;18597;48.328;7.932;2023-04-24T11:08:09;12.73;;;5.10;;
32082;SDS011;18597;48.328;7.932;2023-04-24T11:10:43;4.00;;;1.50;;
32082;SDS011;18597;48.328;7.932;2023-04-24T11:13:29;1.30;;;1.30;;
32082;SDS011;18597;48.328;7.932;2023-04-24T11:16:29;3.43;;;1.50;;
32082;SDS011;18597;48.328;7.932;2023-04-24T11:19:21;1.23;;;1.00;;
32082;SDS011;18597;48.328;7.932;2023-04-24T11:22:06;1.90;;;1.20;;
32082;SDS011;18597;48.328;7.932;2023-04-24T11:24:40;1.20;;;1.10;;
32082;SDS011;18597;48.328;7.932;2023-04-24T11:27:22;1.20;;;1.03;;
32082;SDS011;18597;48.328;7.932;2023-04-24T11:29:58;4.73;;;1.03;;
32082;SDS011;18597;48.328;7.932;2023-04-24T11:32:28;2.20;;;1.50;;
32082;SDS011;18597;48.328;7.932;2023-04-24T11:35:06;3.90;;;1.20;;
32082;SDS011;18597;48.328;7.932;2023-04-24T11:37:42;2.70;;;1.40;;
32082;SDS011;18597;48.328;7.932;2023-04-24T11:40:12;7.20;;;1.33;;
32082;SDS011;18597;48.328;7.932;2023-04-24T11:42:41;1.97;;;1.63;;
32082;SDS011;18597;48.328;7.932;2023-04-24T11:45:10;6.33;;;1.90;;
32082;SDS011;18597;48.328;7.932;2023-04-24T11:47:39;1.37;;;1.37;;
32082;SDS011;18597;48.328;7.932;2023-04-24T11:50:06;4.53;;;0.93;;
32082;SDS011;18597;48.328;7.932;2023-04-24T11:52:39;0.80;;;0.80;;
32082;SDS011;18597;48.328;7.932;2023-04-24T11:55:12;1.23;;;1.13;;
32082;SDS011;18597;48.328;7.932;2023-04-24T11:57:53;3.90;;;1.20;;
32082;SDS011;18597;48.328;7.932;2023-04-24T12:00:24;1.20;;;1.20;;
32082;SDS011;18597;48.328;7.932;2023-04-24T12:03:09;3.87;;;0.90;;
32082;SDS011;18597;48.328;7.932;2023-04-24T12:05:37;0.90;;;0.87;;
32082;SDS011;18597;48.328;7.932;2023-04-24T12:08:03;0.90;;;0.90;;
32082;SDS011;18597;48.328;7.932;2023-04-24T12:10:30;1.10;;;1.10;;
32082;SDS011;18597;48.328;7.932;2023-04-24T12:12:58;1.70;;;1.40;;
32082;SDS011;18597;48.328;7.932;2023-04-24T12:15:25;1.80;;;1.00;;
32082;SDS011;18597;48.328;7.932;2023-04-24T12:17:52;2.60;;;0.67;;
32082;SDS011;18597;48.328;7.932;2023-04-24T12:20:23;0.90;;;0.90;;
32082;SDS011;18597;48.328;7.932;2023-04-24T12:22:53;1.10;;;1.07;;
32082;SDS011;18597;48.328;7.932;2023-04-24T12:25:22;1.60;;;1.60;;
32082;SDS011;18597;48.328;7.932;2023-04-24T12:27:54;2.50;;;1.50;;
32082;SDS011;18597;48.328;7.932;2023-04-24T12:30:44;1.63;;;1.17;;
32082;SDS011;18597;48.328;7.932;2023-04-24T12:33:17;2.23;;;1.33;;
32082;SDS011;18597;48.328;7.932;2023-04-24T12:35:45;4.17;;;1.87;;
32082;SDS011;18597;48.328;7.932;2023-04-24T12:38:11;1.23;;;1.20;;
32082;SDS011;18597;48.328;7.932;2023-04-24T12:40:39;3.33;;;1.20;;
32082;SDS011;18597;48.328;7.932;2023-04-24T12:43:21;2.90;;;1.10;;
32082;SDS011;18597;48.328;7.932;2023-04-24T12:45:47;1.33;;;1.23;;
32082;SDS011;18597;48.328;7.932;2023-04-24T12:48:13;0.70;;;0.70;;
32082;SDS011;18597;48.328;7.932;2023-04-24T12:50:39;1.80;;;1.70;;
32082;SDS011;18597;48.328;7.932;2023-04-24T12:53:06;2.10;;;0.97;;
32082;SDS011;18597;48.328;7.932;2023-04-24T12:55:33;1.00;;;1.00;;
32082;SDS011;18597;48.328;7.932;2023-04-24T12:58:00;1.60;;;1.50;;
32082;SDS011;18597;48.328;7.932;2023-04-24T13:00:26;7.03;;;1.40;;
32082;SDS011;18597;48.328;7.932;2023-04-24T13:02:52;1.27;;;1.27;;
32082;SDS011;18597;48.328;7.932;2023-04-24T13:05:19;1.10;;;1.10;;
32082;SDS011;18597;48.328;7.932;2023-04-24T13:07:45;1.70;;;1.60;;
32082;SDS011;18597;48.328;7.932;2023-04-24T13:10:11;2.70;;;1.43;;
32082;SDS011;18597;48.328;7.932;2023-04-24T13:12:38;4.87;;;2.17;;
32082;SDS011;18597;48.328;7.932;2023-04-24T13:15:05;1.23;;;1.23;;
32082;SDS011;18597;48.328;7.932;2023-04-24T13:17:32;2.10;;;1.73;;
32082;SDS011;18597;48.328;7.932;2023-04-24T13:19:58;2.00;;;1.73;;
32082;SDS011;18597;48.328;7.932;2023-04-24T13:22:24;1.17;;;1.17;;
32082;SDS011;18597;48.328;7.932;2023-04-24T13:24:50;0.97;;;0.97;;
32082;SDS011;18597;48.328;7.932;2023-04-24T13:27:16;2.10;;;2.00;;
32082;SDS011;18597;48.328;7.932;2023-04-24T13:29:42;2.67;;;1.20;;
32082;SDS011;18597;48.328;7.932;2023-04-24T13:32:09;2.20;;;1.27;;
32082;SDS011;18597;48.328;7.932;2023-04-24T13:34:35;2.20;;;1.40;;
32082;SDS011;18597;48.328;7.932;2023-04-24T13:37:01;1.20;;;1.10;;
32082;SDS011;18597;48.328;7.932;2023-04-24T13:39:29;1.37;;;1.27;;
32082;SDS011;18597;48.328;7.932;2023-04-24T13:41:55;1.70;;;1.60;;
32082;SDS011;18597;48.328;7.932;2023-04-24T13:44:22;1.83;;;1.73;;
32082;SDS011;18597;48.328;7.932;2023-04-24T13:46:49;2.70;;;2.00;;
32082;SDS011;18597;48.328;7.932;2023-04-24T13:49:19;3.33;;;2.00;;
32082;SDS011;18597;48.328;7.932;2023-04-24T13:51:46;2.80;;;1.97;;
32082;SDS011;18597;48.328;7.932;2023-04-24T13:54:12;2.37;;;2.27;;
32082;SDS011;18597;48.328;7.932;2023-04-24T13:56:38;1.83;;;1.83;;
32082;SDS011;18597;48.328;7.932;2023-04-24T13:59:05;1.53;;;1.43;;
32082;SDS011;18597;48.328;7.932;2023-04-24T14:01:32;1.60;;;1.60;;
32082;SDS011;18597;48.328;7.932;2023-04-24T14:03:57;1.27;;;1.20;;
32082;SDS011;18597;48.328;7.932;2023-04-24T14:06:24;2.27;;;2.17;;
32082;SDS011;18597;48.328;7.932;2023-04-24T14:08:50;2.90;;;2.10;;
32082;SDS011;18597;48.328;7.932;2023-04-24T14:11:17;1.70;;;1.70;;
32082;SDS011;18597;48.328;7.932;2023-04-24T14:13:44;5.47;;;1.53;;
32082;SDS011;18597;48.328;7.932;2023-04-24T14:16:11;2.27;;;1.43;;
32082;SDS011;18597;48.328;7.932;2023-04-24T14:18:36;2.57;;;2.03;;
32082;SDS011;18597;48.328;7.932;2023-04-24T14:21:03;1.70;;;1.60;;
32082;SDS011;18597;48.328;7.932;2023-04-24T14:23:29;3.37;;;3.10;;
32082;SDS011;18597;48.328;7.932;2023-04-24T14:25:55;3.63;;;3.33;;
32082;SDS011;18597;48.328;7.932;2023-04-24T14:28:22;2.70;;;2.50;;
32082;SDS011;18597;48.328;7.932;2023-04-24T14:30:48;3.13;;;2.40;;
32082;SDS011;18597;48.328;7.932;2023-04-24T14:33:15;2.23;;;2.00;;
32082;SDS011;18597;48.328;7.932;2023-04-24T14:35:41;3.73;;;2.37;;
32082;SDS011;18597;48.328;7.932;2023-04-24T14:38:07;2.20;;;1.60;;
32082;SDS011;18597;48.328;7.932;2023-04-24T14:40:34;2.00;;;1.33;;
32082;SDS011;18597;48.328;7.932;2023-04-24T14:43:00;1.23;;;1.13;;
32082;SDS011;18597;48.328;7.932;2023-04-24T14:45:26;1.40;;;1.40;;
32082;SDS011;18597;48.328;7.932;2023-04-24T14:47:52;1.67;;;1.57;;
32082;SDS011;18597;48.328;7.932;2023-04-24T14:50:19;1.40;;;1.37;;
32082;SDS011;18597;48.328;7.932;2023-04-24T14:52:45;1.03;;;0.90;;